createdAt,value
2017-09-21T07:18:41.802Z,17.37
2017-09-21T07:21:08.161Z,18.70
2017-09-21T07:23:34.470Z,18.40
2017-09-21T07:26:01.011Z,18.77
2017-09-21T07:28:27.371Z,17.80
2017-09-21T07:30:53.714Z,17.60
2017-09-21T07:33:20.120Z,16.20
2017-09-21T07:35:46.451Z,17.00
2017-09-21T07:38:12.787Z,18.13
2017-09-21T07:40:39.139Z,17.47
2017-09-21T07:43:06.951Z,16.83
2017-09-21T07:45:33.252Z,15.87
2017-09-21T07:48:00.358Z,17.53
2017-09-21T07:50:26.710Z,17.43
2017-09-21T07:52:53.046Z,15.63
2017-09-21T07:55:19.393Z,15.23
2017-09-21T07:57:46.477Z,15.20
2017-09-21T08:00:12.793Z,15.47
2017-09-21T08:02:39.160Z,14.87
2017-09-21T08:05:05.571Z,14.53
2017-09-21T08:07:31.885Z,15.67
2017-09-21T08:09:58.235Z,15.20
2017-09-21T08:12:24.544Z,13.37
2017-09-21T08:14:50.870Z,14.17
2017-09-21T08:17:17.429Z,13.70
2017-09-21T08:19:43.751Z,13.00
2017-09-21T08:22:10.053Z,14.40
2017-09-21T08:24:37.157Z,13.17
2017-09-21T08:27:03.468Z,13.83
2017-09-21T08:29:29.785Z,13.57
2017-09-21T08:31:56.133Z,15.03
2017-09-21T08:34:22.446Z,14.97
2017-09-21T08:36:48.876Z,13.93
2017-09-21T08:39:15.223Z,14.20
2017-09-21T08:41:41.574Z,14.23
2017-09-21T08:44:07.946Z,14.67
2017-09-21T08:46:35.068Z,16.20
2017-09-21T08:49:01.407Z,16.80
2017-09-21T08:51:27.786Z,16.13
2017-09-21T08:53:54.093Z,16.87
2017-09-21T08:56:21.148Z,15.33
2017-09-21T08:58:48.242Z,16.07
2017-09-21T09:01:14.591Z,16.60
2017-09-21T09:03:40.943Z,18.60
2017-09-21T09:06:07.346Z,15.80
2017-09-21T09:08:33.670Z,14.83
2017-09-21T09:11:00.043Z,15.17
2017-09-21T09:13:26.497Z,15.47
2017-09-21T09:15:53.549Z,18.73
2017-09-21T09:18:19.917Z,19.63
2017-09-21T09:20:46.258Z,18.60
2017-09-21T09:23:12.584Z,16.73
2017-09-21T09:25:40.374Z,17.37
2017-09-21T09:28:06.727Z,16.67
2017-09-21T09:30:33.056Z,21.60
2017-09-21T09:33:00.169Z,20.30
2017-09-21T09:35:26.480Z,22.20
2017-09-21T09:37:52.784Z,21.03
2017-09-21T09:40:19.166Z,19.67
2017-09-21T09:42:45.472Z,20.83
2017-09-21T09:45:11.811Z,21.90
2017-09-21T09:47:38.179Z,23.30
2017-09-21T09:50:04.530Z,20.80
2017-09-21T09:52:31.579Z,20.40
2017-09-21T09:54:58.797Z,20.10
2017-09-21T09:57:25.902Z,20.90
2017-09-21T09:59:52.269Z,22.03
2017-09-21T10:02:18.615Z,21.13
2017-09-21T10:04:44.965Z,19.47
2017-09-21T10:07:12.021Z,19.37
2017-09-21T10:09:39.119Z,19.07
2017-09-21T10:12:05.492Z,17.80
2017-09-21T10:14:32.627Z,17.80
2017-09-21T10:16:58.927Z,18.23
2017-09-21T10:19:25.239Z,17.07
2017-09-21T10:21:51.679Z,18.73
2017-09-21T10:24:18.024Z,18.77
2017-09-21T10:26:44.410Z,17.87
2017-09-21T10:29:11.504Z,11.97
2017-09-21T10:31:37.865Z,9.33
2017-09-21T10:34:04.236Z,8.23
2017-09-21T10:36:30.595Z,7.93
2017-09-21T10:38:57.792Z,7.20
2017-09-21T10:41:24.850Z,7.50
2017-09-21T10:43:51.162Z,8.00
2017-09-21T10:46:18.243Z,9.80
2017-09-21T10:48:44.620Z,9.60
2017-09-21T10:51:12.460Z,7.90
2017-09-21T10:53:38.768Z,8.50
2017-09-21T10:56:05.069Z,9.00
2017-09-21T10:58:31.501Z,8.10
2017-09-21T11:00:58.583Z,7.77
2017-09-21T11:03:24.938Z,7.60
2017-09-21T11:05:51.244Z,7.67
2017-09-21T11:08:17.549Z,7.00
2017-09-21T11:10:44.648Z,7.57
2017-09-21T11:13:10.951Z,5.90
2017-09-21T11:15:37.256Z,6.97
2017-09-21T11:18:04.352Z,8.10
2017-09-21T11:20:30.658Z,7.50
2017-09-21T11:22:57.056Z,7.80
2017-09-21T11:25:23.370Z,7.60
2017-09-21T11:27:49.741Z,7.87
2017-09-21T11:30:16.876Z,6.60
2017-09-21T11:32:43.924Z,7.20
2017-09-21T11:35:11.005Z,7.73
2017-09-21T11:37:37.315Z,5.57
2017-09-21T11:40:04.420Z,5.20
2017-09-21T11:42:30.743Z,5.47
2017-09-21T11:44:57.246Z,5.20
2017-09-21T11:47:25.245Z,5.30
2017-09-21T11:49:51.599Z,5.60
2017-09-21T11:52:17.963Z,4.97
2017-09-21T11:54:45.054Z,3.70
2017-09-21T11:57:11.373Z,3.27
2017-09-21T11:59:37.710Z,3.87
2017-09-21T12:02:04.063Z,6.80
2017-09-21T12:04:30.358Z,4.70
2017-09-21T12:06:56.666Z,3.90
2017-09-21T12:09:23.043Z,4.07
2017-09-21T12:11:49.379Z,3.40
2017-09-21T12:14:15.699Z,3.90
2017-09-21T12:16:42.086Z,4.13
2017-09-21T12:19:09.209Z,3.80
2017-09-21T12:21:35.516Z,3.20
2017-09-21T12:24:01.904Z,2.90
2017-09-21T12:26:40.217Z,4.03
2017-09-21T12:39:17.168Z,5.20
2017-09-21T12:41:44.287Z,4.60
2017-09-21T12:44:10.596Z,4.80
2017-09-21T12:46:36.970Z,4.80
2017-09-21T12:49:04.017Z,4.00
2017-09-21T12:51:31.063Z,4.77
2017-09-21T12:53:58.195Z,4.60
2017-09-21T12:56:24.507Z,4.93
2017-09-21T12:58:50.809Z,4.90
2017-09-21T13:01:17.175Z,5.50
2017-09-21T13:03:43.509Z,5.77
2017-09-21T13:06:09.812Z,5.50
2017-09-21T13:08:36.155Z,5.70
2017-09-21T13:11:02.472Z,5.63
2017-09-21T13:13:28.827Z,5.83
2017-09-21T13:15:55.155Z,5.70
2017-09-21T13:18:21.523Z,5.67
2017-09-21T13:20:48.622Z,6.60
2017-09-21T13:23:14.985Z,6.57
2017-09-21T13:25:41.340Z,5.50
2017-09-21T13:28:08.397Z,4.70
2017-09-21T13:30:34.709Z,5.27
2017-09-21T13:33:02.046Z,5.00
2017-09-21T13:35:28.354Z,4.73
2017-09-21T13:37:54.710Z,4.83
2017-09-21T13:40:21.019Z,7.37
2017-09-21T13:42:47.406Z,5.40
2017-09-21T13:45:13.719Z,5.50
2017-09-21T13:47:40.813Z,5.83
2017-09-21T13:50:07.179Z,6.20
2017-09-21T13:52:33.486Z,5.30
2017-09-21T13:54:59.814Z,5.67
2017-09-21T13:57:26.510Z,6.10
2017-09-21T13:59:52.876Z,5.87
2017-09-21T14:02:19.677Z,5.57
2017-09-21T14:04:47.621Z,4.77
2017-09-21T14:07:15.919Z,6.17
2017-09-21T14:09:43.938Z,6.20
2017-09-21T14:12:10.307Z,7.00
2017-09-21T14:14:36.673Z,6.27
2017-09-21T14:17:02.976Z,6.23
2017-09-21T14:19:30.039Z,5.90
2017-09-21T14:21:57.215Z,7.17
2017-09-21T14:24:23.513Z,6.00
2017-09-21T14:26:50.563Z,5.37
2017-09-21T14:29:17.715Z,6.70
2017-09-21T14:31:44.754Z,6.80
2017-09-21T14:34:11.804Z,5.00
2017-09-21T14:36:38.901Z,5.57
2017-09-21T14:39:05.260Z,6.90
2017-09-21T14:41:31.580Z,7.40
2017-09-21T14:43:57.992Z,6.87
2017-09-21T14:46:24.373Z,7.30
2017-09-21T14:48:50.704Z,5.83
2017-09-21T14:51:17.067Z,6.27
2017-09-21T14:53:43.356Z,5.30
2017-09-21T14:56:09.695Z,5.90
2017-09-21T14:58:36.876Z,5.50
2017-09-21T15:01:03.176Z,5.10
2017-09-21T15:03:29.504Z,5.40
2017-09-21T15:05:55.856Z,6.53
2017-09-21T15:08:22.906Z,6.00
2017-09-21T15:10:49.998Z,6.23
2017-09-21T15:13:16.353Z,6.43
2017-09-21T15:15:42.655Z,5.70
2017-09-21T15:18:08.955Z,5.90
2017-09-21T15:20:35.328Z,5.83
2017-09-21T15:23:01.674Z,6.47
2017-09-21T15:25:28.033Z,5.27
2017-09-21T15:27:55.301Z,6.70
2017-09-21T15:30:21.707Z,6.60
2017-09-21T15:32:48.117Z,5.83
2017-09-21T15:35:14.463Z,7.60
2017-09-21T15:37:40.883Z,10.50
2017-09-21T15:40:07.299Z,12.07
2017-09-21T15:42:33.643Z,7.27
2017-09-21T15:44:59.943Z,6.50
2017-09-21T15:47:26.311Z,5.90
2017-09-21T15:49:52.620Z,7.57
2017-09-21T15:52:18.923Z,5.67
2017-09-21T15:54:45.351Z,5.80
2017-09-21T15:57:11.751Z,5.37
2017-09-21T15:59:38.068Z,8.93
2017-09-21T16:02:04.440Z,8.90
2017-09-21T16:04:31.624Z,8.50
2017-09-21T16:06:57.987Z,7.80
2017-09-21T16:09:24.289Z,7.93
2017-09-21T16:11:50.639Z,6.47
2017-09-21T16:14:17.003Z,5.90
2017-09-21T16:16:44.065Z,6.20
2017-09-21T16:19:11.320Z,4.80
2017-09-21T16:21:37.657Z,4.83
2017-09-21T16:24:04.007Z,4.87
2017-09-21T16:26:30.397Z,4.40
2017-09-21T16:28:57.838Z,4.10
2017-09-21T16:31:25.060Z,5.20
2017-09-21T16:33:51.895Z,4.27
2017-09-21T16:36:18.581Z,4.43
2017-09-21T16:38:45.171Z,4.80
2017-09-21T16:41:11.525Z,4.80
2017-09-21T16:43:37.981Z,4.27
2017-09-21T16:46:04.318Z,5.20
2017-09-21T16:48:31.367Z,4.90
2017-09-21T16:50:58.464Z,4.73
2017-09-21T16:53:24.787Z,4.10
2017-09-21T16:55:51.196Z,5.57
2017-09-21T16:58:17.774Z,5.27
2017-09-21T17:00:44.147Z,5.30
2017-09-21T17:03:11.208Z,4.93
2017-09-21T17:05:39.617Z,4.10
2017-09-21T17:08:06.079Z,4.53
2017-09-21T17:10:32.408Z,4.23
2017-09-21T17:12:59.326Z,4.63
2017-09-21T17:15:25.699Z,5.50
2017-09-21T17:17:52.076Z,7.03
2017-09-21T17:20:18.469Z,6.67
2017-09-21T17:22:45.562Z,6.93
2017-09-21T17:25:11.966Z,6.97
2017-09-21T17:27:39.066Z,7.00
2017-09-21T17:30:05.494Z,9.57
2017-09-21T17:32:31.880Z,9.20
2017-09-21T17:34:58.947Z,8.90
2017-09-21T17:37:25.382Z,8.53
2017-09-21T17:39:51.760Z,7.10
2017-09-21T17:42:18.787Z,8.43
2017-09-21T17:44:45.948Z,13.70
2017-09-21T17:47:12.256Z,13.23
2017-09-21T17:49:38.676Z,15.13
2017-09-21T17:52:04.995Z,19.83
2017-09-21T17:54:32.097Z,15.03
2017-09-21T17:56:58.424Z,12.87
2017-09-21T17:59:24.835Z,10.30
2017-09-21T18:01:51.255Z,9.17
2017-09-21T18:04:17.572Z,8.63
2017-09-21T18:06:44.816Z,8.47
2017-09-21T18:09:11.940Z,8.20
2017-09-21T18:11:38.331Z,7.93
2017-09-21T18:14:04.694Z,7.90
2017-09-21T18:16:31.039Z,7.90
2017-09-21T18:18:57.400Z,7.40
2017-09-21T18:21:24.561Z,6.63
2017-09-21T18:23:51.615Z,6.23
2017-09-21T18:26:18.002Z,6.53
2017-09-21T18:28:44.316Z,7.40
2017-09-21T18:31:10.672Z,7.00
2017-09-21T18:33:38.534Z,6.23
2017-09-21T18:36:04.908Z,6.13
2017-09-21T18:38:31.299Z,6.90
2017-09-21T18:40:57.804Z,6.07
2017-09-21T18:43:24.161Z,6.77
2017-09-21T18:45:50.492Z,6.97
2017-09-21T18:48:16.849Z,6.57
2017-09-21T18:50:44.011Z,5.77
2017-09-21T18:53:11.183Z,6.13
2017-09-21T18:55:37.546Z,5.70
2017-09-21T18:58:04.014Z,6.17
2017-09-21T19:00:31.107Z,6.27
2017-09-21T19:02:57.468Z,5.97
2017-09-21T19:05:23.927Z,5.73
2017-09-21T19:07:50.297Z,6.20
2017-09-21T19:10:16.712Z,6.33
2017-09-21T19:12:44.102Z,6.73
2017-09-21T19:15:10.470Z,6.30
2017-09-21T19:17:38.421Z,6.63
2017-09-21T19:20:04.837Z,6.73
2017-09-21T19:22:31.188Z,5.50
2017-09-21T19:24:57.553Z,5.87
2017-09-21T19:27:24.670Z,6.40
2017-09-21T19:29:51.064Z,6.40
2017-09-21T19:32:17.370Z,5.63
2017-09-21T19:34:44.419Z,5.97
2017-09-21T19:37:11.600Z,5.93
2017-09-21T19:39:38.157Z,5.33
2017-09-21T19:42:04.722Z,5.47
2017-09-21T19:44:31.192Z,6.67
2017-09-21T19:46:57.503Z,6.03
2017-09-21T19:49:24.616Z,5.53
2017-09-21T19:51:51.576Z,6.93
2017-09-21T19:54:17.959Z,6.40
2017-09-21T19:56:44.514Z,6.47
2017-09-21T19:59:10.859Z,6.30
2017-09-21T20:01:37.232Z,6.33
2017-09-21T20:04:04.359Z,6.03
2017-09-21T20:06:30.755Z,4.60
2017-09-21T20:08:57.208Z,5.63
2017-09-21T20:11:23.527Z,5.97
2017-09-21T20:13:49.970Z,6.10
2017-09-21T20:16:16.331Z,5.07
2017-09-21T20:18:42.903Z,5.23
2017-09-21T20:21:09.430Z,6.10
2017-09-21T20:23:36.597Z,5.40
2017-09-21T20:26:04.035Z,6.20
2017-09-21T20:28:31.178Z,5.93
2017-09-21T20:30:58.749Z,5.93
2017-09-21T20:33:25.446Z,5.80
2017-09-21T20:35:51.930Z,5.20
2017-09-21T20:38:18.757Z,5.00
2017-09-21T20:40:46.227Z,5.63
2017-09-21T20:43:13.589Z,5.60
2017-09-21T20:45:40.481Z,6.00
2017-09-21T20:48:06.799Z,5.90
2017-09-21T20:50:33.164Z,6.10
2017-09-21T20:53:00.225Z,6.13
2017-09-21T20:55:27.351Z,5.10
2017-09-21T20:57:53.813Z,6.10
2017-09-21T21:00:20.381Z,5.70
2017-09-21T21:02:46.699Z,6.20
2017-09-21T21:05:13.062Z,5.50
2017-09-21T21:07:39.359Z,5.87
2017-09-21T21:10:05.664Z,5.13
2017-09-21T21:12:32.766Z,5.00
2017-09-21T21:14:59.106Z,5.27
2017-09-21T21:17:25.421Z,4.90
2017-09-21T21:19:51.763Z,5.00
2017-09-21T21:22:18.068Z,4.87
2017-09-21T21:24:44.456Z,4.97
2017-09-21T21:27:11.587Z,5.40
2017-09-21T21:29:37.897Z,5.53
2017-09-21T21:32:04.223Z,5.80
2017-09-21T21:34:30.568Z,5.40
2017-09-21T21:36:56.866Z,5.30
2017-09-21T21:39:23.255Z,5.60
2017-09-21T21:41:49.559Z,5.63
2017-09-21T21:44:15.872Z,5.53
2017-09-21T21:46:42.225Z,4.73
2017-09-21T21:49:09.271Z,5.87
2017-09-21T21:51:35.579Z,5.57
2017-09-21T21:54:01.944Z,5.93
2017-09-21T21:56:28.266Z,5.80
2017-09-21T21:58:54.565Z,5.77
2017-09-21T22:01:20.983Z,6.20
2017-09-21T22:03:47.292Z,6.50
2017-09-21T22:06:14.400Z,5.83
2017-09-21T22:08:40.714Z,6.90
2017-09-21T22:11:07.025Z,6.00
2017-09-21T22:13:33.376Z,5.30
2017-09-21T22:15:59.695Z,5.30
2017-09-21T22:18:26.011Z,5.20
2017-09-21T22:20:52.370Z,6.03
2017-09-21T22:23:18.687Z,6.10
2017-09-21T22:25:45.031Z,6.87
2017-09-21T22:28:11.334Z,6.37
2017-09-21T22:30:37.697Z,6.40
2017-09-21T22:33:03.987Z,7.00
2017-09-21T22:35:31.082Z,6.87
2017-09-21T22:37:57.388Z,6.93
2017-09-21T22:40:23.687Z,7.87
2017-09-21T22:42:50.764Z,6.63
2017-09-21T22:45:18.174Z,7.17
2017-09-21T22:47:44.471Z,8.20
2017-09-21T22:50:10.812Z,8.17
2017-09-21T22:52:37.150Z,8.10
2017-09-21T22:55:03.517Z,7.33
2017-09-21T22:57:30.587Z,7.67
2017-09-21T22:59:56.972Z,8.00
2017-09-21T23:02:23.289Z,6.80
2017-09-21T23:04:49.615Z,7.10
2017-09-21T23:07:15.946Z,7.47
2017-09-21T23:09:42.286Z,7.33
2017-09-21T23:12:08.612Z,7.43
2017-09-21T23:14:34.985Z,7.43
2017-09-21T23:17:02.036Z,7.93
2017-09-21T23:19:29.083Z,9.73
2017-09-21T23:21:56.192Z,8.70
2017-09-21T23:24:22.491Z,7.93
2017-09-21T23:26:48.796Z,8.33
2017-09-21T23:29:15.883Z,8.20
2017-09-21T23:31:42.205Z,8.30
2017-09-21T23:34:08.564Z,8.27
2017-09-21T23:36:34.870Z,7.90
2017-09-21T23:39:01.181Z,8.80
2017-09-21T23:41:27.515Z,8.93
2017-09-21T23:43:53.850Z,9.40
2017-09-21T23:46:20.191Z,8.87
2017-09-21T23:48:46.487Z,8.67
2017-09-21T23:51:13.544Z,8.33
2017-09-21T23:53:39.894Z,9.37
2017-09-21T23:56:06.220Z,9.20
2017-09-21T23:58:32.612Z,10.17
